DAUO/ELU METAR and TAF weather

Enter ICAO airport designator
Station Type Date Time Source
DAUO METAR 2021/05/14 04:00 UTC NOAA

DAUO 140400Z 19004KT CAVOK 22/02 Q1011


Station Type Date Time Source
DAUO Decoded METAR 2021/05/14 04:00 UTC NOAA

El Oued, Algeria (DAUO) 33-30N 006-07E 63M
May 14, 2021 - 12:00 AM EDT / 2021.05.14 0400 UTC
Wind: from the S (190 degrees) at 5 MPH (4 KT):0
Visibility: greater than 7 mile(s):0
Temperature: 71 F (22 C)
Dew Point: 35 F (2 C)
Relative Humidity: 26%
Pressure (altimeter): 29.85 in. Hg (1011 hPa)
ob: DAUO 140400Z 19004KT CAVOK 22/02 Q1011
cycle: 4

Station Type Date Time Source
DAUO TAF 2017/11/09 18:03 UTC NOAA

TAF DAUO 091700Z 0918/1009 28010KT 9999 SCT033 SCT100 PROB30
TEMPO 0918/0924 28015G25KT 5000 -TSRA FEW036CB

Example: see airport list